Terminal Aerodrome Forecast
Issued by NWS Sioux Falls, SD

Home | Current Version | Previous Version | Text Only | Print | Product List | Glossary On
Versions: 1 2 3 4 5 6 7 8 9 10 11 12 13 14 15
491
FTUS43 KFSD 231009 AAA
TAFHON
TAF AMD
KHON 231009Z 2310/2406 30018G28KT P6SM BKN200
     FM231400 30019G32KT P6SM FEW200
     FM231700 32027G39KT P6SM BKN070
     FM232300 33021G31KT P6SM BKN060
     FM240100 33017G25KT P6SM SCT060=

USA.gov is the U.S. government's official web portal to all federal, state and local government web resources and services.